Time;durP1;ratioP1;P1;durP2;ratioP2;P2;SDS_P1;SDS_P2;PMS_P1;PMS_P2;Temp;Humidity;BMP_temperature;BMP_pressure;BME280_temperature;BME280_humidity;BME280_pressure;Samples;Min_cycle;Max_cycle;Signal;HPM_P1;HPM_P2
2022/04/21 00:00:36;;;;;;;8.43;4.97;;;;;;;17.92;40.38;101324.53;5077963;28;19916;-55
2022/04/21 00:03:03;;;;;;;11.95;5.28;;;;;;;18.02;40.21;101318.59;5087802;28;20037;-53
2022/04/21 00:05:31;;;;;;;9.18;5.30;;;;;;;17.89;40.48;101308.78;5085642;28;20061;-55
2022/04/21 00:07:57;;;;;;;9.30;5.25;;;;;;;17.89;40.49;101315.00;5080292;28;20043;-54
2022/04/21 00:10:23;;;;;;;17.13;5.90;;;;;;;17.73;40.83;101305.69;5091221;28;20032;-54
2022/04/21 00:12:49;;;;;;;8.32;5.10;;;;;;;17.85;40.42;101300.28;5079815;28;20293;-53
2022/04/21 00:15:16;;;;;;;11.15;5.15;;;;;;;17.89;40.27;101304.16;5085959;28;20036;-49
2022/04/21 00:17:42;;;;;;;10.70;5.38;;;;;;;17.65;40.88;101297.91;5087164;28;20104;-53
2022/04/21 00:20:09;;;;;;;14.00;5.78;;;;;;;17.69;40.74;101299.09;5078523;28;20071;-56
2022/04/21 00:25:19;;;;;;;8.75;5.43;;;;;;;17.67;40.90;101300.38;5083903;28;20039;-55
2022/04/21 00:27:45;;;;;;;7.43;4.85;;;;;;;17.54;41.07;101295.97;5081569;28;20032;-53
2022/04/21 00:30:12;;;;;;;10.90;5.10;;;;;;;17.68;41.08;101294.72;5090711;28;20065;-53
2022/04/21 00:32:40;;;;;;;9.85;4.95;;;;;;;17.65;41.02;101289.78;5060442;28;20036;-53
2022/04/21 00:35:07;;;;;;;13.30;5.43;;;;;;;19.41;38.44;101300.91;5074398;28;20040;-54
2022/04/21 00:37:54;;;;;;;7.60;4.88;;;;;;;19.64;37.83;101294.50;5083023;28;20036;-51
2022/04/21 00:40:21;;;;;;;14.75;5.85;;;;;;;19.58;38.08;101296.31;5090663;28;20040;-52
2022/04/21 00:42:47;;;;;;;13.13;5.53;;;;;;;19.49;38.31;101303.22;5074311;28;20040;-53
2022/04/21 00:45:14;;;;;;;9.38;6.05;;;;;;;19.27;38.66;101292.25;5082760;28;20056;-51
2022/04/21 00:47:43;;;;;;;11.48;5.85;;;;;;;19.24;38.72;101295.41;5081289;28;20120;-54
2022/04/21 00:50:29;;;;;;;9.85;4.88;;;;;;;19.18;39.19;101299.94;5090265;28;20032;-53
2022/04/21 00:52:56;;;;;;;12.85;5.63;;;;;;;18.20;39.80;101296.00;5065752;28;20106;-51
2022/04/21 00:55:22;;;;;;;9.43;5.15;;;;;;;17.56;41.09;101299.28;5084859;28;20098;-52
2022/04/21 00:57:51;;;;;;;10.82;5.70;;;;;;;18.67;40.10;101303.22;5087397;28;20040;-53
2022/04/21 01:00:17;;;;;;;9.95;5.88;;;;;;;19.01;39.35;101302.56;5077483;28;20041;-54
2022/04/21 01:02:50;;;;;;;10.27;5.05;;;;;;;19.18;39.05;101313.50;5090019;28;20039;-52
2022/04/21 01:05:31;;;;;;;12.40;5.10;;;;;;;18.62;40.15;101308.53;5082881;28;20033;-50
2022/04/21 01:08:02;;;;;;;12.77;5.70;;;;;;;18.61;40.63;101315.03;5079706;28;20047;-54
2022/04/21 01:10:30;;;;;;;10.57;5.20;;;;;;;19.02;39.34;101310.47;5090520;28;20144;-54
2022/04/21 01:12:56;;;;;;;9.13;5.38;;;;;;;19.18;39.35;101318.91;5072708;28;20036;-51
2022/04/21 01:15:22;;;;;;;13.23;5.35;;;;;;;17.23;42.59;101320.31;5083388;28;20064;-52
2022/04/21 01:17:48;;;;;;;10.18;5.53;;;;;;;16.91;43.48;101310.50;5063595;28;20045;-53
2022/04/21 01:20:15;;;;;;;10.52;5.72;;;;;;;16.93;43.90;101304.88;5090601;28;20039;-55
2022/04/21 01:22:40;;;;;;;15.00;5.85;;;;;;;16.88;44.39;101304.75;5057485;28;20020;-52
2022/04/21 01:25:06;;;;;;;11.23;6.23;;;;;;;17.16;43.89;101300.66;5081380;28;20037;-51
2022/04/21 01:27:33;;;;;;;14.10;6.05;;;;;;;16.88;45.05;101299.34;5083118;28;20048;-54
2022/04/21 01:30:02;;;;;;;12.45;5.53;;;;;;;16.91;45.28;101299.69;5088363;28;20044;-53
2022/04/21 01:32:27;;;;;;;13.15;5.78;;;;;;;16.83;45.84;101291.06;5077884;28;20035;-51
2022/04/21 01:34:52;;;;;;;11.17;6.47;;;;;;;16.82;45.98;101294.81;5092010;28;20025;-53
2022/04/21 01:42:47;;;;;;;14.77;6.47;;;;;;;16.69;46.74;101290.41;5066096;28;20032;-50
2022/04/21 01:45:13;;;;;;;11.00;6.03;;;;;;;18.38;44.04;101289.63;5089201;28;20037;-53
2022/04/21 01:47:38;;;;;;;14.77;6.50;;;;;;;18.53;43.11;101296.44;5088949;28;20075;-51
2022/04/21 01:50:07;;;;;;;12.17;6.60;;;;;;;18.60;43.12;101291.69;5082300;28;20092;-52
2022/04/21 01:52:37;;;;;;;16.75;6.38;;;;;;;18.57;43.04;101293.03;5079568;28;20496;-50
2022/04/21 01:55:04;;;;;;;12.35;6.28;;;;;;;18.70;42.89;101285.69;5090861;28;20108;-52
2022/04/21 01:57:29;;;;;;;12.07;6.40;;;;;;;18.70;42.92;101285.69;5087536;28;20284;-54
2022/04/21 01:59:55;;;;;;;13.43;7.03;;;;;;;18.71;42.84;101282.75;5082465;28;20036;-54
2022/04/21 02:02:21;;;;;;;11.50;6.10;;;;;;;18.71;43.08;101285.44;5093637;28;20041;-55
2022/04/21 02:04:46;;;;;;;13.93;6.53;;;;;;;17.50;46.68;101279.38;5081252;28;20029;-54
2022/04/21 02:07:12;;;;;;;15.73;7.05;;;;;;;17.31;45.29;101276.78;5089133;28;20128;-50
2022/04/21 02:09:38;;;;;;;12.88;6.40;;;;;;;16.54;48.53;101277.28;5088675;28;20032;-51
2022/04/21 02:12:06;;;;;;;14.93;6.22;;;;;;;17.35;48.74;101277.13;5081328;28;20082;-50
2022/04/21 02:14:33;;;;;;;16.08;7.10;;;;;;;16.45;50.15;101277.59;5093274;28;20043;-54
2022/04/21 02:17:00;;;;;;;12.43;6.32;;;;;;;16.36;51.02;101272.69;5082872;28;20092;-50
2022/04/21 02:19:25;;;;;;;15.95;7.70;;;;;;;16.57;50.09;101274.97;5087072;28;20040;-51
2022/04/21 02:21:51;;;;;;;11.70;6.83;;;;;;;16.56;51.82;101270.63;5089949;28;20082;-51
2022/04/21 02:24:16;;;;;;;13.53;7.23;;;;;;;17.05;52.42;101267.13;5080080;28;20036;-54
2022/04/21 02:26:41;;;;;;;13.17;7.30;;;;;;;16.06;53.76;101266.13;5093164;28;20033;-55
2022/04/21 02:29:07;;;;;;;12.60;6.83;;;;;;;17.71;49.62;101264.50;5082845;28;20273;-51
2022/04/21 02:31:32;;;;;;;13.90;6.80;;;;;;;16.83;49.96;101266.75;5086129;28;20068;-52
2022/04/21 02:33:58;;;;;;;17.38;7.00;;;;;;;17.77;48.74;101268.19;5090634;28;20051;-54
2022/04/21 02:36:23;;;;;;;15.23;7.27;;;;;;;18.12;47.39;101272.00;5079799;28;20066;-52
2022/04/21 02:38:49;;;;;;;15.50;7.57;;;;;;;16.75;49.78;101274.13;5091754;28;20132;-52
2022/04/21 02:41:16;;;;;;;15.80;7.40;;;;;;;16.18;53.08;101269.75;5084493;28;20043;-53
2022/04/21 02:43:41;;;;;;;15.25;6.90;;;;;;;17.42;51.60;101263.50;5083938;28;20270;-56
2022/04/21 02:46:08;;;;;;;11.63;6.70;;;;;;;18.07;48.30;101269.97;5091343;28;20063;-55
2022/04/21 02:48:34;;;;;;;16.52;7.45;;;;;;;18.16;47.75;101267.75;5079416;28;20045;-52
2022/04/21 02:50:59;;;;;;;15.25;7.18;;;;;;;18.10;47.67;101269.50;5090445;28;20385;-55
2022/04/21 02:58:54;;;;;;;10.95;6.60;;;;;;;15.77;57.02;101263.03;5066411;28;20051;-54
2022/04/21 03:01:20;;;;;;;14.25;7.13;;;;;;;15.67;59.05;101257.28;5087181;28;20040;-56
2022/04/21 03:03:46;;;;;;;13.35;7.28;;;;;;;16.20;55.13;101267.66;5088273;28;20032;-55
2022/04/21 03:06:12;;;;;;;13.10;6.78;;;;;;;15.76;58.83;101262.19;5079972;28;20048;-54
2022/04/21 03:08:38;;;;;;;12.73;8.05;;;;;;;15.76;59.62;101258.69;5092284;28;20045;-53
2022/04/21 03:11:04;;;;;;;16.83;7.47;;;;;;;15.68;60.56;101258.94;5075816;28;20039;-54
2022/04/21 03:13:30;;;;;;;12.48;6.72;;;;;;;15.59;61.82;101251.13;5085723;28;20032;-53
2022/04/21 03:15:56;;;;;;;13.00;7.40;;;;;;;15.64;62.05;101263.97;5081988;28;20043;-55
2022/04/21 03:18:22;;;;;;;13.60;7.07;;;;;;;15.52;62.71;101258.44;5092105;28;20056;-53
2022/04/21 03:26:17;;;;;;;13.25;7.03;;;;;;;15.56;62.87;101258.81;5091887;28;20025;-53
2022/04/21 03:28:43;;;;;;;15.77;7.78;;;;;;;16.96;58.16;101258.50;5062238;28;20037;-54
2022/04/21 03:31:09;;;;;;;12.75;7.28;;;;;;;16.42;55.79;101258.31;5088267;28;20035;-56
2022/04/21 03:33:35;;;;;;;15.68;9.18;;;;;;;17.55;53.99;101259.78;5086156;28;20040;-54
2022/04/21 03:36:00;;;;;;;17.87;7.83;;;;;;;15.61;61.94;101262.53;5080802;28;20037;-53
2022/04/21 03:38:26;;;;;;;13.47;7.73;;;;;;;15.54;63.67;101258.22;5091525;28;20060;-55
2022/04/21 03:40:51;;;;;;;18.88;8.25;;;;;;;15.53;64.20;101257.41;5079809;28;20039;-53
2022/04/21 03:43:17;;;;;;;14.13;8.23;;;;;;;16.42;57.35;101263.69;5086804;28;20029;-52
2022/04/21 03:45:42;;;;;;;15.53;7.93;;;;;;;15.54;64.89;101261.75;5086756;28;20296;-54
2022/04/21 03:48:07;;;;;;;22.43;8.43;;;;;;;15.34;68.24;101265.41;5079669;28;20056;-55
2022/04/21 03:50:34;;;;;;;13.48;7.70;;;;;;;15.16;70.96;101262.59;5091169;28;20032;-53
2022/04/21 03:53:00;;;;;;;15.05;7.97;;;;;;;15.18;71.04;101266.75;5080459;28;20048;-52
2022/04/21 03:55:26;;;;;;;16.35;7.85;;;;;;;15.20;70.95;101263.81;5085298;28;20040;-53
2022/04/21 03:57:51;;;;;;;13.93;7.77;;;;;;;15.22;71.14;101259.03;5087705;28;20036;-54
2022/04/21 04:00:18;;;;;;;16.73;7.97;;;;;;;15.15;71.66;101256.41;5078585;28;20036;-52
2022/04/21 04:02:44;;;;;;;12.20;7.32;;;;;;;15.16;71.25;101258.06;5058250;28;20029;-51
2022/04/21 04:05:09;;;;;;;16.83;8.20;;;;;;;15.38;69.80;101263.09;5081829;28;20052;-54
2022/04/21 04:13:03;;;;;;;12.20;7.57;;;;;;;15.27;70.25;101259.22;5066728;28;20043;-51
2022/04/21 04:15:28;;;;;;;16.53;7.87;;;;;;;15.18;70.61;101261.34;5085154;28;20142;-53
2022/04/21 04:17:54;;;;;;;12.60;8.03;;;;;;;15.15;71.57;101266.34;5087716;28;20044;-51
2022/04/21 04:20:20;;;;;;;14.07;7.30;;;;;;;15.19;70.71;101260.31;5077575;28;20052;-55
2022/04/21 04:22:45;;;;;;;17.00;8.43;;;;;;;15.18;70.80;101264.03;5091069;28;20037;-52
2022/04/21 04:25:11;;;;;;;11.82;7.38;;;;;;;15.23;70.67;101270.66;5081679;28;20044;-52
2022/04/21 04:27:37;;;;;;;14.53;7.60;;;;;;;15.25;70.30;101272.09;5084208;28;20055;-54
2022/04/21 04:30:08;;;;;;;14.68;8.02;;;;;;;15.20;70.58;101263.81;5088580;28;20029;-52
2022/04/21 04:32:33;;;;;;;14.77;7.70;;;;;;;15.20;71.18;101258.44;5077679;28;20068;-52
2022/04/21 04:34:59;;;;;;;15.18;8.43;;;;;;;15.22;70.79;101261.72;5089034;28;20044;-51
2022/04/21 04:37:25;;;;;;;13.82;7.60;;;;;;;15.34;69.60;101265.41;5083325;28;20043;-50
2022/04/21 04:39:50;;;;;;;15.73;7.77;;;;;;;15.27;70.19;101267.31;5081743;28;20041;-51
2022/04/21 04:42:23;;;;;;;21.30;7.00;;;;;;;15.23;70.66;101276.03;5089522;28;20045;-50
2022/04/21 04:46:34;;;;;;;15.00;7.70;;;;;;;15.31;69.61;101267.69;5061948;28;20025;-51
2022/04/21 04:47:37;;;;;;;;;;;;;;;15.27;69.94;101270.00;5064472;28;20131;-55
2022/04/21 04:50:03;;;;;;;17.70;7.53;;;;;;;15.24;70.59;101265.06;5066311;28;19991;-54
2022/04/21 04:52:29;;;;;;;16.00;7.53;;;;;;;15.24;70.36;101265.06;5075167;28;20040;-52
2022/04/21 04:54:54;;;;;;;17.50;9.03;;;;;;;15.18;70.67;101273.97;5082758;28;20029;-52
2022/04/21 04:57:20;;;;;;;16.30;8.83;;;;;;;15.16;71.13;101268.81;5076046;28;20029;-50
2022/04/21 04:59:45;;;;;;;15.87;7.43;;;;;;;15.15;70.86;101269.03;5067762;28;20029;-52
2022/04/21 05:02:11;;;;;;;14.53;7.60;;;;;;;15.24;69.73;101265.06;5064337;28;20053;-56
2022/04/21 05:04:37;;;;;;;11.00;6.78;;;;;;;15.30;68.96;101264.19;5059033;28;20270;-50
2022/04/21 05:07:03;;;;;;;16.63;8.00;;;;;;;15.27;68.75;101267.31;5070109;28;20055;-54
2022/04/21 05:09:29;;;;;;;16.30;7.25;;;;;;;15.36;68.05;101267.88;5088882;28;20040;-54
2022/04/21 05:11:58;;;;;;;21.23;7.80;;;;;;;15.34;68.31;101268.09;5091013;28;20100;-54
2022/04/21 05:14:24;;;;;;;12.88;7.35;;;;;;;15.30;68.36;101274.97;5081039;28;20053;-50
2022/04/21 05:16:50;;;;;;;13.90;7.20;;;;;;;15.29;69.02;101275.16;5088481;28;20028;-55
2022/04/21 05:19:17;;;;;;;15.02;7.55;;;;;;;15.30;68.97;101277.66;5090373;28;20051;-55
2022/04/21 05:21:45;;;;;;;13.48;7.75;;;;;;;15.18;69.97;101276.69;5088992;28;20047;-54
2022/04/21 05:24:11;;;;;;;15.32;7.72;;;;;;;15.33;68.80;101277.22;5082963;28;20043;-57
2022/04/21 05:26:38;;;;;;;18.42;8.27;;;;;;;15.39;68.06;101278.22;5094391;28;20036;-56
2022/04/21 05:31:59;;;;;;;13.60;7.13;;;;;;;15.38;68.59;101281.13;5084320;28;20029;-57
2022/04/21 05:34:26;;;;;;;13.27;7.93;;;;;;;15.40;68.30;101270.97;5093189;28;20040;-56
2022/04/21 05:36:52;;;;;;;14.55;7.53;;;;;;;15.43;67.38;101265.97;5076830;28;20037;-53
2022/04/21 05:39:18;;;;;;;15.27;7.22;;;;;;;15.31;68.16;101270.38;5084233;28;20024;-53
2022/04/21 05:41:44;;;;;;;14.07;7.70;;;;;;;15.49;66.95;101269.66;5085458;28;20033;-54
2022/04/21 05:44:10;;;;;;;44.42;19.35;;;;;;;15.51;66.58;101272.13;5091008;28;20100;-54
2022/04/21 05:46:36;;;;;;;17.25;7.55;;;;;;;15.60;65.57;101270.84;5079034;28;20044;-55
2022/04/21 05:49:03;;;;;;;14.95;7.57;;;;;;;15.44;66.56;101274.88;5069001;28;20037;-56
2022/04/21 05:51:30;;;;;;;18.10;7.70;;;;;;;15.55;65.97;101276.88;5069301;28;20129;-56
2022/04/21 05:53:58;;;;;;;14.13;5.93;;;;;;;15.75;64.48;101267.81;5066613;28;20030;-54
2022/04/21 05:56:24;;;;;;;18.55;7.32;;;;;;;15.68;64.82;101269.72;5081478;28;20041;-56
2022/04/21 05:58:50;;;;;;;20.13;9.90;;;;;;;15.70;63.11;101262.28;5068590;28;20063;-55
2022/04/21 06:01:16;;;;;;;12.98;6.72;;;;;;;15.73;63.91;101267.22;5068409;28;20037;-56
2022/04/21 06:03:41;;;;;;;11.20;6.37;;;;;;;15.87;63.29;101263.34;5069295;28;20043;-56
2022/04/21 06:06:09;;;;;;;14.18;6.75;;;;;;;16.02;62.26;101267.63;5068440;28;20266;-57
2022/04/21 06:08:36;;;;;;;14.52;6.72;;;;;;;16.02;61.79;101259.53;5091272;28;20036;-53
2022/04/21 06:11:03;;;;;;;12.18;6.45;;;;;;;15.96;62.04;101265.81;5076636;28;20044;-54
2022/04/21 06:13:30;;;;;;;12.80;6.88;;;;;;;16.05;61.86;101269.88;5076932;28;20157;-54
2022/04/21 06:15:58;;;;;;;14.30;6.68;;;;;;;16.18;61.59;101275.16;5086253;28;20052;-55
2022/04/21 06:18:25;;;;;;;10.38;5.70;;;;;;;16.21;61.29;101271.16;5079723;28;20044;-53
2022/04/21 06:20:52;;;;;;;12.35;6.03;;;;;;;16.06;62.01;101266.13;5061962;28;20095;-54
2022/04/21 06:23:19;;;;;;;13.63;6.40;;;;;;;16.32;61.19;101275.84;5062878;28;20037;-54
2022/04/21 06:25:44;;;;;;;16.92;9.40;;;;;;;18.05;54.84;101275.63;5078483;28;20047;-53
2022/04/21 06:28:11;;;;;;;13.40;6.38;;;;;;;16.80;56.35;101272.63;5081402;28;20066;-54
2022/04/21 06:30:37;;;;;;;12.65;6.90;;;;;;;16.44;58.58;101270.53;5084974;28;20037;-55
2022/04/21 06:33:03;;;;;;;13.95;6.45;;;;;;;16.35;60.17;101269.16;5077932;28;20092;-55
2022/04/21 06:35:29;;;;;;;9.82;5.95;;;;;;;16.52;59.56;101273.97;5085948;28;20048;-53
2022/04/21 06:37:55;;;;;;;11.70;6.65;;;;;;;16.60;59.19;101270.97;5089019;28;20096;-56
2022/04/21 06:40:21;;;;;;;11.70;6.13;;;;;;;16.60;58.82;101270.97;5080238;28;20049;-54
2022/04/21 06:42:46;;;;;;;10.18;5.25;;;;;;;16.56;57.67;101265.22;5092525;28;20036;-55
2022/04/21 06:48:04;;;;;;;14.20;5.45;;;;;;;16.73;57.44;101260.03;5083009;28;20049;-50
2022/04/21 06:50:34;;;;;;;17.50;7.00;;;;;;;16.87;56.27;101254.47;5092215;28;20126;-55
2022/04/21 06:53:08;;;;;;;14.68;6.43;;;;;;;16.99;57.41;101258.06;5078628;28;20028;-53
2022/04/21 06:55:34;;;;;;;11.82;6.20;;;;;;;16.86;55.57;101255.53;5084800;28;20044;-51
2022/04/21 06:58:00;;;;;;;9.23;5.72;;;;;;;16.88;55.70;101261.53;5074231;28;20041;-54
2022/04/21 07:00:26;;;;;;;10.93;5.32;;;;;;;17.06;56.38;101269.59;5091391;28;20047;-53
2022/04/21 07:02:55;;;;;;;12.82;5.95;;;;;;;17.10;56.97;101269.16;5078627;28;20033;-54
2022/04/21 07:05:22;;;;;;;9.65;4.78;;;;;;;17.03;54.90;101271.94;5087605;28;20031;-52
2022/04/21 07:07:48;;;;;;;14.35;6.50;;;;;;;17.25;55.90;101266.84;5086565;28;20036;-52
2022/04/21 07:10:13;;;;;;;15.73;5.93;;;;;;;17.34;54.18;101268.19;5080933;28;20040;-54
2022/04/21 07:12:39;;;;;;;11.77;6.15;;;;;;;17.49;55.63;101266.91;5077208;28;20040;-53
2022/04/21 07:15:07;;;;;;;12.40;5.83;;;;;;;17.56;53.43;101264.97;5090653;28;20091;-54
2022/04/21 07:17:34;;;;;;;11.95;5.85;;;;;;;17.67;54.57;101268.75;5084657;28;20035;-56
2022/04/21 07:20:02;;;;;;;9.38;5.10;;;;;;;17.48;53.42;101271.53;5082639;28;20064;-54
2022/04/21 07:22:29;;;;;;;9.00;4.80;;;;;;;17.74;51.40;101277.56;5092096;28;20202;-51
2022/04/21 07:24:58;;;;;;;9.23;4.93;;;;;;;17.73;51.68;101278.63;5079002;28;20036;-57
2022/04/21 07:27:24;;;;;;;14.13;4.78;;;;;;;17.67;51.33;101278.72;5087484;28;20092;-56
2022/04/21 07:29:51;;;;;;;12.13;5.20;;;;;;;17.73;52.03;101281.31;5086629;28;20043;-54
2022/04/21 07:32:17;;;;;;;8.40;4.80;;;;;;;18.08;50.85;101279.75;5080077;28;20032;-54
2022/04/21 07:34:43;;;;;;;11.07;5.22;;;;;;;18.18;51.42;101274.56;5091593;28;20069;-52
2022/04/21 07:37:09;;;;;;;6.82;4.30;;;;;;;18.18;51.57;101284.56;5081052;28;20047;-55
2022/04/21 07:39:36;;;;;;;11.25;5.93;;;;;;;19.57;49.72;101283.00;5085560;28;20036;-54
2022/04/21 07:42:02;;;;;;;;;;;;;;;18.64;49.00;101276.63;5088572;28;20036;-54
2022/04/21 07:44:28;;;;;;;7.53;4.25;;;;;;;18.62;50.31;101282.28;5078130;28;19936;-53
2022/04/21 07:46:54;;;;;;;10.43;4.90;;;;;;;20.36;44.76;101283.97;5094704;28;20036;-50
2022/04/21 07:54:51;;;;;;;11.77;4.37;;;;;;;18.93;47.94;101279.38;5077931;28;20261;-52
2022/04/21 07:57:17;;;;;;;11.07;4.57;;;;;;;19.27;47.72;101284.91;5087863;28;20273;-51
2022/04/21 07:59:42;;;;;;;7.07;4.30;;;;;;;18.91;46.67;101284.19;5085128;28;20048;-55
2022/04/21 08:02:08;;;;;;;6.70;4.50;;;;;;;19.14;48.13;101294.16;5080498;28;20281;-54
2022/04/21 08:04:34;;;;;;;7.13;4.67;;;;;;;19.18;48.12;101280.97;5090855;28;20285;-55
2022/04/21 08:07:00;;;;;;;11.63;5.00;;;;;;;19.26;47.76;101282.44;5079255;28;20108;-52
2022/04/21 08:09:25;;;;;;;8.98;4.50;;;;;;;20.37;43.65;101279.34;5085789;28;20037;-52
2022/04/21 08:11:51;;;;;;;15.68;5.70;;;;;;;21.37;43.65;101288.41;5074484;28;20063;-54
2022/04/21 08:14:17;;;;;;;11.67;5.10;;;;;;;20.71;44.55;101285.50;5088645;28;20056;-53
2022/04/21 08:16:43;;;;;;;;;;;;;;;20.74;44.25;101290.41;5078070;28;20082;-57
2022/04/21 08:19:10;;;;;;;7.07;4.63;;;;;;;20.75;42.88;101292.06;5088921;28;19909;-53
2022/04/21 08:21:36;;;;;;;11.15;5.10;;;;;;;20.11;45.17;101290.69;5083741;28;20285;-54
2022/04/21 08:32:33;;;;;;;7.27;4.47;;;;;;;19.92;45.73;101296.38;5081464;28;20060;-52
2022/04/21 08:35:09;;;;;;;13.57;3.60;;;;;;;20.54;42.43;101290.19;5065286;28;20261;-55
2022/04/21 08:37:36;;;;;;;7.47;4.13;;;;;;;20.62;42.92;101284.31;5084950;28;20304;-55
2022/04/21 08:40:06;;;;;;;6.88;3.40;;;;;;;20.73;41.32;101277.91;5086880;28;20277;-52
2022/04/21 08:42:38;;;;;;;6.73;3.40;;;;;;;20.81;39.98;101286.75;5077988;28;20061;-53
2022/04/21 08:45:06;;;;;;;4.50;3.03;;;;;;;20.82;38.86;101288.38;5083441;28;20269;-54
2022/04/21 08:47:32;;;;;;;4.30;2.60;;;;;;;20.69;37.56;101276.78;5089679;28;20285;-55
2022/04/21 08:50:06;;;;;;;5.83;3.13;;;;;;;20.59;38.44;101282.91;5090676;28;20265;-54
2022/04/21 08:52:34;;;;;;;7.40;2.87;;;;;;;21.20;38.13;101278.44;5081476;28;20280;-55
2022/04/21 08:55:02;;;;;;;9.20;2.50;;;;;;;21.33;37.27;101280.75;5094232;28;20280;-54
2022/04/21 08:57:31;;;;;;;8.93;3.20;;;;;;;21.62;36.93;101283.19;5085782;28;20294;-56
2022/04/21 09:00:00;;;;;;;4.93;2.97;;;;;;;21.84;36.75;101282.31;5086134;28;20301;-52
2022/04/21 09:02:44;;;;;;;8.80;3.33;;;;;;;21.58;36.51;101282.06;5094198;28;20269;-53
2022/04/21 09:05:09;;;;;;;6.70;2.60;;;;;;;23.39;33.75;101278.66;5069056;28;20355;-55
2022/04/21 09:07:50;;;;;;;7.25;2.47;;;;;;;22.33;34.03;101269.53;5089098;28;20266;-56
2022/04/21 09:10:16;;;;;;;5.57;2.40;;;;;;;23.73;32.70;101281.66;5092670;28;20036;-56
2022/04/21 09:12:45;;;;;;;5.00;2.07;;;;;;;24.44;30.77;101276.34;5081294;28;20290;-53
2022/04/21 09:15:19;;;;;;;4.97;2.40;;;;;;;25.04;29.35;101275.53;5092506;28;20277;-54
2022/04/21 09:17:56;;;;;;;5.57;1.90;;;;;;;25.02;29.37;101276.91;5081996;28;20288;-57
2022/04/21 09:20:33;;;;;;;7.33;2.20;;;;;;;25.62;28.23;101273.25;5097564;28;20281;-54
2022/04/21 09:23:01;;;;;;;4.40;1.90;;;;;;;26.22;27.58;101274.06;5057828;28;20040;-55
2022/04/21 09:25:44;;;;;;;3.60;1.93;;;;;;;26.87;27.24;101276.31;5073447;28;20039;-52
2022/04/21 09:28:21;;;;;;;3.90;1.90;;;;;;;27.24;26.60;101279.31;5083771;28;20036;-56
2022/04/21 09:30:47;;;;;;;3.63;2.13;;;;;;;26.94;25.69;101264.94;5077515;28;20029;-55
2022/04/21 09:33:25;;;;;;;4.05;2.08;;;;;;;28.29;24.70;101268.19;5083350;28;20029;-57
2022/04/21 09:35:51;;;;;;;3.33;1.70;;;;;;;28.91;23.66;101275.16;5086223;28;20051;-57
2022/04/21 09:38:18;;;;;;;;;;;;;;;29.46;23.74;101268.66;5092611;28;20036;-56
2022/04/21 09:40:47;;;;;;;3.28;1.63;;;;;;;29.98;23.29;101263.72;5080522;28;19917;-52
2022/04/21 09:43:13;;;;;;;6.47;1.90;;;;;;;28.66;23.23;101263.56;5091405;28;20037;-54
2022/04/21 09:48:30;;;;;;;6.13;2.30;;;;;;;28.84;24.52;101266.53;5081597;28;19923;-53
2022/04/21 09:51:08;;;;;;;4.43;1.80;;;;;;;29.38;23.21;101258.34;5093317;28;20036;-56
2022/04/21 09:53:49;;;;;;;9.50;2.10;;;;;;;29.52;22.75;101260.25;5085124;28;20126;-55
2022/04/21 09:56:15;;;;;;;4.00;1.60;;;;;;;30.87;21.97;101268.34;5082166;28;20067;-57
2022/04/21 09:58:42;;;;;;;3.07;1.73;;;;;;;32.31;20.90;101267.41;5093423;28;20032;-55
2022/04/21 10:01:08;;;;;;;4.73;2.03;;;;;;;32.71;20.12;101280.84;5081872;28;20029;-55
2022/04/21 10:03:34;;;;;;;4.53;2.20;;;;;;;32.97;19.68;101265.19;5088331;28;20037;-57
2022/04/21 10:06:04;;;;;;;6.10;1.80;;;;;;;32.80;19.63;101268.91;5089145;28;20040;-55
2022/04/21 10:08:29;;;;;;;3.20;2.37;;;;;;;32.72;19.82;101268.59;5080373;28;20044;-55
2022/04/21 10:10:59;;;;;;;3.47;2.43;;;;;;;32.18;19.88;101267.31;5093354;28;20032;-55
2022/04/21 10:13:25;;;;;;;5.38;2.30;;;;;;;33.44;19.42;101269.66;5083747;28;20036;-54
2022/04/21 10:15:51;;;;;;;8.02;2.35;;;;;;;33.75;18.99;101262.81;5085942;28;20033;-57
2022/04/21 10:18:17;;;;;;;4.47;2.00;;;;;;;33.44;19.75;101259.41;5091118;28;20060;-55
2022/04/21 10:20:45;;;;;;;3.35;1.95;;;;;;;32.58;19.78;101257.00;5079794;28;20064;-57
2022/04/21 10:23:16;;;;;;;6.63;2.47;;;;;;;33.74;19.01;101258.41;5091205;28;20024;-57
2022/04/21 10:25:45;;;;;;;4.53;2.28;;;;;;;33.50;18.82;101250.84;5086004;28;20045;-53
2022/04/21 10:28:35;;;;;;;8.23;2.15;;;;;;;33.38;19.27;101246.06;5082829;28;20048;-55
2022/04/21 10:31:34;;;;;;;4.18;2.30;;;;;;;32.83;18.81;101241.31;5060496;28;20033;-58
2022/04/21 10:34:00;;;;;;;2.70;1.60;;;;;;;32.63;19.71;101242.13;5088192;28;20366;-56
2022/04/21 10:36:37;;;;;;;4.80;2.30;;;;;;;32.66;19.09;101247.81;5080430;28;20041;-58
2022/04/21 10:39:26;;;;;;;3.95;2.17;;;;;;;33.29;18.75;101235.88;5064369;28;20092;-56
2022/04/21 10:42:16;;;;;;;3.03;1.67;;;;;;;32.68;18.78;101237.22;5084669;28;20033;-58
2022/04/21 10:44:42;;;;;;;3.08;2.15;;;;;;;32.50;18.68;101242.09;5076834;28;20033;-58
2022/04/21 10:47:31;;;;;;;3.72;1.92;;;;;;;33.23;18.20;101228.94;5091003;28;20116;-57
2022/04/21 10:50:01;;;;;;;5.15;2.05;;;;;;;33.38;17.86;101223.88;5087469;28;20032;-58
2022/04/21 10:57:50;;;;;;;3.88;1.98;;;;;;;33.42;18.52;101216.50;5084932;28;20045;-58
2022/04/21 11:00:26;;;;;;;4.43;2.10;;;;;;;33.87;18.36;101223.97;5089503;28;20058;-58
2022/04/21 11:03:08;;;;;;;3.03;1.75;;;;;;;34.36;17.43;101219.56;5079104;28;20052;-59
2022/04/21 11:05:38;;;;;;;10.05;2.30;;;;;;;34.32;17.18;101218.66;5086594;28;20037;-58
2022/04/21 11:08:10;;;;;;;3.15;1.60;;;;;;;34.86;17.34;101225.00;5087935;28;20036;-58
2022/04/21 11:10:36;;;;;;;5.03;1.88;;;;;;;35.08;17.08;101214.53;5078655;28;20060;-59
2022/04/21 11:13:03;;;;;;;3.13;1.75;;;;;;;35.38;16.71;101214.13;5078559;28;20091;-59
2022/04/21 11:15:33;;;;;;;7.40;2.05;;;;;;;35.03;17.16;101210.81;5088008;28;20056;-58
2022/04/21 11:18:29;;;;;;;3.03;1.58;;;;;;;35.59;16.90;101216.66;5087013;28;20108;-56
2022/04/21 11:21:26;;;;;;;5.47;1.98;;;;;;;36.20;16.71;101216.50;5076649;28;20073;-58
2022/04/21 11:23:52;;;;;;;10.70;2.25;;;;;;;36.54;15.90;101212.09;5084515;28;20061;-59
2022/04/21 11:26:24;;;;;;;5.40;1.67;;;;;;;36.80;15.71;101216.22;5089580;28;20043;-59
2022/04/21 11:28:50;;;;;;;2.50;1.25;;;;;;;36.84;15.40;101208.75;5078194;28;20048;-58
2022/04/21 11:31:20;;;;;;;3.35;1.85;;;;;;;37.04;15.04;101203.16;5088794;28;20025;-58
2022/04/21 11:33:46;;;;;;;7.68;1.88;;;;;;;37.37;15.11;101198.97;5084959;28;20123;-57
2022/04/21 11:36:14;;;;;;;3.05;1.60;;;;;;;36.90;14.99;101203.66;5081692;28;20051;-60
2022/04/21 11:38:49;;;;;;;3.00;1.35;;;;;;;36.95;15.04;101195.00;5091526;28;20044;-59
2022/04/21 11:41:15;;;;;;;3.53;1.70;;;;;;;37.05;14.90;101199.19;5080433;28;20142;-58
2022/04/21 11:43:48;;;;;;;2.60;1.40;;;;;;;38.00;14.19;101190.41;5086031;28;20052;-58
2022/04/21 11:46:19;;;;;;;2.60;1.25;;;;;;;38.48;14.00;101183.47;5088691;28;20060;-58
2022/04/21 11:48:45;;;;;;;2.38;1.55;;;;;;;38.09;14.37;101184.56;5077916;28;20044;-57
2022/04/21 11:51:11;;;;;;;9.23;1.88;;;;;;;38.55;14.73;101175.19;5090032;28;20033;-59
2022/04/21 11:53:43;;;;;;;6.60;1.30;;;;;;;37.22;15.20;101170.03;5082511;28;20044;-57
2022/04/21 11:56:10;;;;;;;3.10;1.50;;;;;;;38.04;14.78;101176.50;5082261;28;20059;-58
2022/04/21 11:58:43;;;;;;;5.07;1.75;;;;;;;38.56;14.06;101172.00;5091150;28;20095;-59
2022/04/21 12:06:58;;;;;;;2.13;1.38;;;;;;;39.57;13.26;101174.22;5089888;28;20032;-59
2022/04/21 12:09:35;;;;;;;5.43;1.88;;;;;;;39.35;13.03;101170.41;5081018;28;20028;-58
2022/04/21 12:12:03;;;;;;;3.92;1.60;;;;;;;38.99;13.51;101163.31;5082992;28;20062;-58
2022/04/21 12:14:30;;;;;;;3.45;1.55;;;;;;;39.19;13.76;101167.88;5090038;28;20208;-59
2022/04/21 12:17:00;;;;;;;4.57;1.88;;;;;;;39.25;13.83;101164.34;5077394;28;20071;-59
2022/04/21 12:19:40;;;;;;;5.18;1.65;;;;;;;39.54;13.89;101163.78;5087653;28;20048;-59
2022/04/21 12:22:13;;;;;;;8.65;1.75;;;;;;;39.61;12.77;101163.03;5086436;28;20096;-59
2022/04/21 12:24:49;;;;;;;4.53;1.77;;;;;;;40.30;13.32;101153.03;5077443;28;20041;-60